createdAt,value
2023-02-17T00:00:31.195Z,99679.64
2023-02-17T00:05:59.316Z,99674.39
2023-02-17T00:11:08.374Z,99674.63
2023-02-17T00:21:33.973Z,99670.34
2023-02-17T00:26:41.378Z,99676.33
2023-02-17T00:31:49.863Z,99670.80
2023-02-17T00:36:57.340Z,99671.14
2023-02-17T00:42:04.916Z,99667.77
2023-02-17T00:47:12.924Z,99659.71
2023-02-17T00:52:20.292Z,99655.09
2023-02-17T00:57:32.549Z,99643.57
2023-02-17T01:02:39.921Z,99642.34
2023-02-17T01:07:47.325Z,99639.63
2023-02-17T01:12:52.929Z,99636.34
2023-02-17T01:18:00.186Z,99630.70
2023-02-17T01:23:08.447Z,99618.74
2023-02-17T01:28:20.413Z,99613.44
2023-02-17T01:33:27.759Z,99606.82
2023-02-17T01:38:33.368Z,99602.88
2023-02-17T01:43:42.548Z,99591.95
2023-02-17T01:48:52.052Z,99583.23
2023-02-17T01:54:04.978Z,99575.66
2023-02-17T01:59:19.285Z,99574.13
2023-02-17T02:04:31.527Z,99571.58
2023-02-17T02:09:44.863Z,99565.83
2023-02-17T02:14:53.762Z,99558.58
2023-02-17T02:20:30.140Z,99562.38
2023-02-17T02:25:59.139Z,99559.05
2023-02-17T02:31:20.094Z,99556.73
2023-02-17T02:36:32.399Z,99562.52
2023-02-17T02:41:43.529Z,99558.94
2023-02-17T02:46:59.997Z,99554.77
2023-02-17T02:52:17.574Z,99554.14
2023-02-17T02:57:35.387Z,99554.21
2023-02-17T03:02:54.173Z,99556.02
2023-02-17T03:08:08.521Z,99549.11
2023-02-17T03:13:16.442Z,99547.72
2023-02-17T03:18:24.088Z,99545.55
2023-02-17T03:23:31.669Z,99543.58
2023-02-17T03:28:39.633Z,99550.30
2023-02-17T03:33:46.781Z,99554.37
2023-02-17T03:38:55.249Z,99547.77
2023-02-17T03:44:02.906Z,99549.93
2023-02-17T03:49:12.942Z,99550.85
2023-02-17T03:54:20.632Z,99543.66
2023-02-17T03:59:28.648Z,99540.77
2023-02-17T04:04:36.672Z,99538.85
2023-02-17T04:09:43.803Z,99527.42
2023-02-17T04:14:49.336Z,99528.20
2023-02-17T04:19:56.963Z,99522.34
2023-02-17T04:25:06.243Z,99521.54
2023-02-17T04:30:16.185Z,99526.48
2023-02-17T04:35:24.237Z,99524.04
2023-02-17T04:40:31.797Z,99516.30
2023-02-17T04:45:40.260Z,99513.23
2023-02-17T04:50:47.786Z,99513.63
2023-02-17T04:55:55.990Z,99508.73
2023-02-17T05:01:04.444Z,99511.52
2023-02-17T05:06:12.162Z,99513.55
2023-02-17T05:11:19.747Z,99516.00
2023-02-17T05:16:27.384Z,99511.95
2023-02-17T05:21:37.414Z,99508.46
2023-02-17T05:26:45.005Z,99507.89
2023-02-17T05:31:54.416Z,99502.20
2023-02-17T05:37:03.629Z,99509.96
2023-02-17T05:42:11.881Z,99513.02
2023-02-17T05:47:19.790Z,99512.63
2023-02-17T05:52:27.397Z,99512.00
2023-02-17T05:57:35.098Z,99506.67
2023-02-17T06:02:44.817Z,99498.48
2023-02-17T06:07:53.674Z,99496.96
2023-02-17T06:13:01.423Z,99497.70
2023-02-17T06:18:09.737Z,99490.59
2023-02-17T06:23:17.278Z,99477.96
2023-02-17T06:28:28.331Z,99474.73
2023-02-17T06:33:35.980Z,99466.84
2023-02-17T06:38:43.553Z,99463.55
2023-02-17T06:43:50.959Z,99459.46
2023-02-17T06:48:58.267Z,99460.73
2023-02-17T06:54:07.178Z,99460.83
2023-02-17T06:59:14.938Z,99468.48
2023-02-17T07:04:22.254Z,99476.09
2023-02-17T07:09:29.991Z,99478.33
2023-02-17T07:14:41.361Z,99477.84
2023-02-17T07:19:49.610Z,99481.65
2023-02-17T07:25:01.401Z,99484.52
2023-02-17T07:30:11.795Z,99484.52
2023-02-17T07:35:20.659Z,99479.84
2023-02-17T07:40:30.977Z,99484.34
2023-02-17T07:45:38.727Z,99482.85
2023-02-17T07:50:46.431Z,99470.27
2023-02-17T07:55:53.708Z,99456.67
2023-02-17T08:01:06.435Z,99451.27
2023-02-17T08:06:15.128Z,99442.67
2023-02-17T08:11:40.249Z,99439.36
2023-02-17T08:16:47.652Z,99434.61
2023-02-17T08:21:55.752Z,99433.13
2023-02-17T08:27:03.864Z,99429.64
2023-02-17T08:32:12.576Z,99420.39
2023-02-17T08:37:20.300Z,99422.63
2023-02-17T08:42:29.059Z,99427.86
2023-02-17T08:47:38.260Z,99418.56
2023-02-17T08:52:45.841Z,99407.70
2023-02-17T08:57:54.900Z,99404.13
2023-02-17T09:03:03.014Z,99401.98
2023-02-17T09:08:11.360Z,99400.45
2023-02-17T09:13:19.100Z,99392.10
2023-02-17T09:18:26.464Z,99393.27
2023-02-17T09:23:33.670Z,99389.59
2023-02-17T09:28:43.226Z,99382.89
2023-02-17T09:33:51.960Z,99381.29
2023-02-17T09:38:59.990Z,99372.77
2023-02-17T09:44:15.376Z,99366.45
2023-02-17T09:49:26.015Z,99352.83
2023-02-17T09:54:42.589Z,99341.75
2023-02-17T09:59:53.913Z,99347.93
2023-02-17T10:05:08.467Z,99347.91
2023-02-17T10:10:22.266Z,99350.88
2023-02-17T10:15:33.729Z,99340.36
2023-02-17T10:20:46.624Z,99332.36
2023-02-17T10:26:06.980Z,99326.59
2023-02-17T10:31:18.872Z,99323.44
2023-02-17T10:36:33.064Z,99317.91
2023-02-17T10:41:43.360Z,99312.45
2023-02-17T10:46:53.490Z,99302.29
2023-02-17T10:52:05.228Z,99295.36
2023-02-17T10:57:14.708Z,99282.30
2023-02-17T11:02:24.671Z,99276.61
2023-02-17T11:07:36.703Z,99268.97
2023-02-17T11:12:45.432Z,99264.67
2023-02-17T11:17:53.859Z,99251.27
2023-02-17T11:23:08.123Z,99239.02
2023-02-17T11:28:24.152Z,99235.26
2023-02-17T11:33:36.716Z,99231.40
2023-02-17T11:38:48.205Z,99226.88
2023-02-17T11:43:58.802Z,99230.73
2023-02-17T11:49:41.546Z,99224.88
2023-02-17T11:55:01.220Z,99198.66
2023-02-17T12:00:18.934Z,99189.87
2023-02-17T12:05:33.305Z,99182.02
2023-02-17T12:10:58.127Z,99173.83
2023-02-17T12:16:20.417Z,99165.45
2023-02-17T12:21:53.497Z,99167.63
2023-02-17T12:27:12.304Z,99163.15
2023-02-17T12:32:35.852Z,99163.77
2023-02-17T12:37:51.996Z,99166.13
2023-02-17T12:43:02.806Z,99163.67
2023-02-17T12:48:17.700Z,99151.52
2023-02-17T12:53:40.543Z,99141.35
2023-02-17T12:58:47.996Z,99134.38
2023-02-17T13:03:56.360Z,99129.17
2023-02-17T13:09:16.901Z,99130.46
2023-02-17T13:14:39.873Z,99124.83
2023-02-17T13:19:46.960Z,99117.47
2023-02-17T13:24:54.723Z,99108.43
2023-02-17T13:30:07.218Z,99100.48
2023-02-17T13:35:34.239Z,99092.86
2023-02-17T13:40:44.213Z,99085.40
2023-02-17T13:45:55.032Z,99078.99
2023-02-17T13:51:03.963Z,99076.37
2023-02-17T13:56:13.830Z,99061.48
2023-02-17T14:01:26.151Z,99054.64
2023-02-17T14:06:38.005Z,99044.96
2023-02-17T14:11:45.546Z,99031.33
2023-02-17T14:17:04.472Z,99030.38
2023-02-17T14:22:28.933Z,99014.86
2023-02-17T14:27:46.661Z,99006.48
2023-02-17T14:33:03.034Z,99001.95
2023-02-17T14:38:27.881Z,98998.61
2023-02-17T14:43:35.278Z,98994.61
2023-02-17T14:48:42.702Z,98980.92
2023-02-17T14:53:51.451Z,98969.92
2023-02-17T14:58:59.277Z,98962.44
2023-02-17T15:04:09.438Z,98959.94
2023-02-17T15:09:21.479Z,98957.00
2023-02-17T15:14:28.748Z,98952.61
2023-02-17T15:19:36.011Z,98946.09
2023-02-17T15:24:43.888Z,98938.38
2023-02-17T15:29:51.731Z,98928.04
2023-02-17T15:34:59.535Z,98927.48
2023-02-17T15:40:13.799Z,98911.77
2023-02-17T15:45:22.451Z,98894.78
2023-02-17T15:50:29.891Z,98886.02
2023-02-17T15:55:38.484Z,98874.33
2023-02-17T16:00:47.533Z,98861.55
2023-02-17T16:05:54.945Z,98847.23
2023-02-17T16:11:03.165Z,98834.15
2023-02-17T16:16:19.500Z,98828.41
2023-02-17T16:21:27.860Z,98823.30
2023-02-17T16:26:38.076Z,98816.81
2023-02-17T16:31:46.437Z,98810.96
2023-02-17T16:36:58.707Z,98805.26
2023-02-17T16:42:06.953Z,98800.88
2023-02-17T16:47:22.699Z,98795.86
2023-02-17T16:52:30.642Z,98796.05
2023-02-17T16:57:38.489Z,98788.34
2023-02-17T17:02:46.203Z,98780.83
2023-02-17T17:07:56.774Z,98776.17
2023-02-17T17:13:04.808Z,98760.54
2023-02-17T17:18:22.140Z,98747.68
2023-02-17T17:23:31.734Z,98744.73
2023-02-17T17:28:41.179Z,98749.02
2023-02-17T17:33:51.702Z,98752.52
2023-02-17T17:39:00.629Z,98754.86
2023-02-17T17:44:10.360Z,98731.41
2023-02-17T17:49:18.973Z,98725.04
2023-02-17T17:54:27.208Z,98716.45
2023-02-17T17:59:34.409Z,98699.86
2023-02-17T18:04:43.440Z,98694.83
2023-02-17T18:09:50.896Z,98702.15
2023-02-17T18:15:02.814Z,98706.01
2023-02-17T18:20:13.478Z,98722.30
2023-02-17T18:25:20.982Z,98722.64
2023-02-17T18:30:28.811Z,98711.23
2023-02-17T18:35:41.416Z,98707.60
2023-02-17T18:40:49.030Z,98706.77
2023-02-17T19:00:02.780Z,98682.62
2023-02-17T19:05:13.917Z,98678.88
2023-02-17T19:10:21.840Z,98684.83
2023-02-17T19:15:29.633Z,98690.09
2023-02-17T19:20:37.614Z,98687.04
2023-02-17T19:25:44.858Z,98690.07
2023-02-17T19:30:52.878Z,98690.18
2023-02-17T19:36:00.512Z,98682.44
2023-02-17T19:44:27.922Z,98678.92
2023-02-17T19:49:35.496Z,98691.84
2023-02-17T19:54:42.573Z,98691.56
2023-02-17T19:59:48.228Z,98692.49
2023-02-17T20:04:55.395Z,98691.00
2023-02-17T20:10:03.126Z,98695.13
2023-02-17T20:15:11.931Z,98706.13
2023-02-17T20:20:19.915Z,98705.48
2023-02-17T20:25:27.058Z,98698.99
2023-02-17T20:30:34.309Z,98693.48
2023-02-17T20:35:41.924Z,98686.73
2023-02-17T20:40:50.085Z,98679.44
2023-02-17T20:45:57.784Z,98680.09
2023-02-17T20:51:06.200Z,98686.86
2023-02-17T20:56:18.516Z,98689.08
2023-02-17T21:01:26.494Z,98686.86
2023-02-17T21:06:38.201Z,98681.49
2023-02-17T21:11:46.680Z,98673.38
2023-02-17T21:16:54.771Z,98661.58
2023-02-17T21:22:02.276Z,98660.02
2023-02-17T21:27:09.850Z,98664.49
2023-02-17T21:32:19.816Z,98675.45
2023-02-17T21:37:27.388Z,98673.11
2023-02-17T21:42:52.749Z,98663.35
2023-02-17T21:48:00.654Z,98658.75
2023-02-17T21:53:08.191Z,98659.20
2023-02-17T21:58:15.685Z,98644.66
2023-02-17T22:03:24.314Z,98647.86
2023-02-17T22:08:31.718Z,98650.27
2023-02-17T22:13:41.468Z,98641.48
2023-02-17T22:18:48.723Z,98638.73
2023-02-17T22:23:57.319Z,98633.66
2023-02-17T22:29:05.266Z,98620.27
2023-02-17T22:34:15.902Z,98616.15
2023-02-17T22:39:23.331Z,98628.99
2023-02-17T22:44:31.797Z,98636.27
2023-02-17T22:49:39.438Z,98645.64
2023-02-17T22:54:47.196Z,98666.94
2023-02-17T22:59:55.384Z,98661.20
2023-02-17T23:05:03.604Z,98634.55
2023-02-17T23:10:12.898Z,98622.08
2023-02-17T23:15:39.324Z,98614.23
2023-02-17T23:20:48.516Z,98626.17
2023-02-17T23:25:57.749Z,98639.11
2023-02-17T23:31:05.306Z,98650.75
2023-02-17T23:36:15.257Z,98659.73
2023-02-17T23:41:22.819Z,98669.91
2023-02-17T23:46:31.848Z,98670.98
2023-02-17T23:51:40.000Z,98662.98
2023-02-17T23:56:47.623Z,98661.94
